Time;durP1;ratioP1;P1;durP2;ratioP2;P2;SDS_P1;SDS_P2;PMS_P1;PMS_P2;Temp;Humidity;BMP_temperature;BMP_pressure;BME280_temperature;BME280_humidity;BME280_pressure;Samples;Min_cycle;Max_cycle;Signal;HPM_P1;HPM_P2
2024/04/17 00:00:30;;;;;;;;;;;;;;;10.68;100.00;101058.63;5252187;27;1236;-68
2024/04/17 00:02:55;;;;;;;;;;;;;;;10.68;100.00;101062.09;5269204;27;1297;-69
2024/04/17 00:05:21;;;;;;;;;;;;;;;10.63;100.00;101064.63;5263096;27;1247;-69
2024/04/17 00:07:46;;;;;;;;;;;;;;;10.64;100.00;101063.56;5244472;27;1873;-69
2024/04/17 00:10:11;;;;;;;;;;;;;;;10.63;100.00;101059.25;5284854;27;1328;-70
2024/04/17 00:12:36;;;;;;;;;;;;;;;10.63;100.00;101063.78;5274045;27;1275;-69
2024/04/17 00:15:02;;;;;;;;;;;;;;;10.58;100.00;101066.28;5246183;27;1326;-69
2024/04/17 00:17:27;;;;;;;;;;;;;;;10.55;100.00;101065.69;5249840;27;1165;-68
2024/04/17 00:19:52;;;;;;;;;;;;;;;10.52;100.00;101074.13;5277086;27;1399;-68
2024/04/17 00:22:17;;;;;;;;;;;;;;;10.54;100.00;101079.28;5276104;27;1325;-68
2024/04/17 00:24:43;;;;;;;;;;;;;;;10.52;100.00;101073.31;5266886;27;1310;-68
2024/04/17 00:27:08;;;;;;;;;;;;;;;10.56;100.00;101074.53;5247523;27;1832;-69
2024/04/17 00:29:33;;;;;;;;;;;;;;;10.49;100.00;101063.00;5241229;27;1770;-69
2024/04/17 00:31:59;;;;;;;;;;;;;;;10.53;100.00;101058.88;5254543;27;1333;-69
2024/04/17 00:34:24;;;;;;;;;;;;;;;10.52;100.00;101062.56;5272482;27;1225;-69
2024/04/17 00:36:49;;;;;;;;;;;;;;;10.52;100.00;101065.25;5260045;27;1298;-69
2024/04/17 00:39:14;;;;;;;;;;;;;;;10.46;100.00;101063.41;5270620;27;1351;-69
2024/04/17 00:41:40;;;;;;;;;;;;;;;10.44;100.00;101057.47;5258821;27;1297;-69
2024/04/17 00:44:05;;;;;;;;;;;;;;;10.44;100.00;101052.09;5280465;27;1165;-69
2024/04/17 00:46:31;;;;;;;;;;;;;;;10.42;100.00;101056.81;5266800;27;1280;-69
2024/04/17 00:48:56;;;;;;;;;;;;;;;10.42;100.00;101056.81;5260373;27;1870;-70
2024/04/17 00:51:21;;;;;;;;;;;;;;;10.40;100.00;101058.91;5250596;27;1236;-69
2024/04/17 00:53:47;;;;;;;;;;;;;;;10.36;100.00;101053.13;5254081;27;1361;-69
2024/04/17 00:56:12;;;;;;;;;;;;;;;10.35;100.00;101054.19;5236480;27;1395;-69
2024/04/17 00:58:37;;;;;;;;;;;;;;;10.35;100.00;101052.31;5260854;27;1331;-72
2024/04/17 01:01:02;;;;;;;;;;;;;;;10.33;100.00;101059.75;5232262;27;1355;-69
2024/04/17 01:03:28;;;;;;;;;;;;;;;10.28;100.00;101056.81;5269324;27;1337;-69
2024/04/17 01:05:53;;;;;;;;;;;;;;;10.30;100.00;101049.41;5274230;27;1288;-69
2024/04/17 01:08:19;;;;;;;;;;;;;;;10.32;100.00;101050.00;5270325;27;1873;-68
2024/04/17 01:10:44;;;;;;;;;;;;;;;10.27;100.00;101054.34;5266911;27;1376;-69
2024/04/17 01:13:09;;;;;;;;;;;;;;;10.28;100.00;101050.66;5273329;27;1307;-69
2024/04/17 01:15:35;;;;;;;;;;;;;;;10.25;100.00;101051.88;5287935;27;1181;-69
2024/04/17 01:18:00;;;;;;;;;;;;;;;10.25;100.00;101048.38;5259984;27;1124;-69
2024/04/17 01:20:26;;;;;;;;;;;;;;;10.29;100.00;101049.63;5248055;27;1372;-69
2024/04/17 01:22:51;;;;;;;;;;;;;;;10.29;100.00;101050.44;5252429;27;1340;-69
2024/04/17 01:25:16;;;;;;;;;;;;;;;10.26;100.00;101052.69;5299997;27;1325;-68
2024/04/17 01:27:42;;;;;;;;;;;;;;;10.23;100.00;101053.97;5257558;27;1944;-68
2024/04/17 01:30:07;;;;;;;;;;;;;;;10.21;100.00;101046.13;5249423;27;1517;-68
2024/04/17 01:32:33;;;;;;;;;;;;;;;10.22;100.00;101049.63;5256729;27;1444;-68
2024/04/17 01:34:58;;;;;;;;;;;;;;;10.19;100.00;101042.00;5270769;27;1158;-68
2024/04/17 01:37:23;;;;;;;;;;;;;;;10.17;100.00;101036.84;5292573;26;1228;-68
2024/04/17 01:39:48;;;;;;;;;;;;;;;10.18;100.00;101037.66;5266602;27;1755;-68
2024/04/17 01:42:14;;;;;;;;;;;;;;;10.11;100.00;101047.56;5270138;27;1168;-68
2024/04/17 01:44:39;;;;;;;;;;;;;;;10.11;100.00;101040.38;5273514;27;1181;-69
2024/04/17 01:47:04;;;;;;;;;;;;;;;10.13;100.00;101037.47;5248365;27;1837;-68
2024/04/17 01:49:29;;;;;;;;;;;;;;;10.16;100.00;101040.56;5279747;27;1306;-68
2024/04/17 01:51:55;;;;;;;;;;;;;;;10.13;100.00;101034.81;5277958;27;1388;-68
2024/04/17 01:54:20;;;;;;;;;;;;;;;10.08;100.00;101039.94;5265642;27;1360;-68
2024/04/17 01:56:45;;;;;;;;;;;;;;;10.12;100.00;101044.69;5275325;27;1287;-68
2024/04/17 01:59:11;;;;;;;;;;;;;;;10.13;100.00;101050.88;5282629;27;1478;-68
2024/04/17 02:01:36;;;;;;;;;;;;;;;10.11;100.00;101045.72;5256435;27;1894;-68
2024/04/17 02:04:01;;;;;;;;;;;;;;;10.05;100.00;101038.53;5258491;27;1514;-68
2024/04/17 02:06:26;;;;;;;;;;;;;;;10.07;100.00;101041.81;5270791;27;1416;-68
2024/04/17 02:08:52;;;;;;;;;;;;;;;10.03;100.00;101038.75;5263042;27;1830;-68
2024/04/17 02:11:17;;;;;;;;;;;;;;;10.02;100.00;101041.59;5264371;27;1366;-68
2024/04/17 02:13:42;;;;;;;;;;;;;;;10.01;100.00;101035.44;5253329;27;1382;-68
2024/04/17 02:16:08;;;;;;;;;;;;;;;10.03;100.00;101037.91;5262260;27;1195;-68
2024/04/17 02:18:33;;;;;;;;;;;;;;;9.97;100.00;101039.53;5267853;27;1327;-68
2024/04/17 02:20:59;;;;;;;;;;;;;;;9.96;100.00;101040.59;5261809;27;1291;-68
2024/04/17 02:23:28;;;;;;;;;;;;;;;9.96;100.00;101037.06;5256743;27;1469;-68
2024/04/17 02:25:56;;;;;;;;;;;;;;;9.94;100.00;101034.59;5281738;27;1318;-68
2024/04/17 02:28:22;;;;;;;;;;;;;;;9.99;100.00;101042.00;5273469;27;1850;-67
2024/04/17 02:30:47;;;;;;;;;;;;;;;9.97;100.00;101038.72;5253144;27;1147;-68
2024/04/17 02:33:12;;;;;;;;;;;;;;;9.96;100.00;101035.25;5250275;27;1276;-68
2024/04/17 02:35:38;;;;;;;;;;;;;;;9.94;100.00;101039.16;5261987;27;1334;-68
2024/04/17 02:38:03;;;;;;;;;;;;;;;9.91;100.00;101040.38;5279755;27;1257;-68
2024/04/17 02:40:28;;;;;;;;;;;;;;;9.91;100.00;101047.59;5266556;27;1353;-68
2024/04/17 02:42:53;;;;;;;;;;;;;;;9.94;100.00;101045.31;5249963;27;1970;-68
2024/04/17 02:45:19;;;;;;;;;;;;;;;9.93;100.00;101048.22;5251341;27;1288;-68
2024/04/17 02:47:44;;;;;;;;;;;;;;;9.92;100.00;101038.53;5273824;27;1923;-68
2024/04/17 02:50:09;;;;;;;;;;;;;;;9.88;100.00;101048.84;5289096;27;1397;-68
2024/04/17 02:52:34;;;;;;;;;;;;;;;9.85;100.00;101043.88;5278753;27;1321;-68
2024/04/17 02:55:02;;;;;;;;;;;;;;;9.83;100.00;101052.13;5267120;27;1189;-68
2024/04/17 02:57:27;;;;;;;;;;;;;;;9.89;100.00;101049.66;5244783;27;1360;-68
2024/04/17 02:59:53;;;;;;;;;;;;;;;9.87;100.00;101047.19;5268566;27;1223;-68
2024/04/17 03:02:18;;;;;;;;;;;;;;;9.88;100.00;101040.78;5261202;27;1480;-68
2024/04/17 03:04:43;;;;;;;;;;;;;;;9.82;100.00;101047.81;5261018;27;1303;-68
2024/04/17 03:07:08;;;;;;;;;;;;;;;9.86;100.00;101043.69;5274848;26;1831;-68
2024/04/17 03:09:34;;;;;;;;;;;;;;;9.85;100.00;101049.25;5275621;27;1201;-68
2024/04/17 03:11:59;;;;;;;;;;;;;;;9.79;100.00;101039.38;5263890;27;1465;-67
2024/04/17 03:14:24;;;;;;;;;;;;;;;9.80;100.00;101046.38;5271665;27;1370;-68
2024/04/17 03:16:49;;;;;;;;;;;;;;;9.79;100.00;101045.53;5265287;27;1296;-67
2024/04/17 03:19:15;;;;;;;;;;;;;;;9.79;100.00;101047.41;5265787;27;1174;-68
2024/04/17 03:21:40;;;;;;;;;;;;;;;9.77;100.00;101044.94;5249238;27;1554;-67
2024/04/17 03:24:05;;;;;;;;;;;;;;;9.80;100.00;101049.06;5254433;27;1169;-68
2024/04/17 03:26:31;;;;;;;;;;;;;;;9.77;100.00;101041.41;5272004;27;1404;-68
2024/04/17 03:28:56;;;;;;;;;;;;;;;9.76;100.00;101051.31;5255298;27;1911;-68
2024/04/17 03:31:21;;;;;;;;;;;;;;;9.76;100.00;101062.03;5248259;27;1371;-67
2024/04/17 03:33:46;;;;;;;;;;;;;;;9.70;100.00;101057.50;5256377;27;1397;-68
2024/04/17 03:36:12;;;;;;;;;;;;;;;9.72;100.00;101058.09;5274508;27;1300;-68
2024/04/17 03:38:37;;;;;;;;;;;;;;;9.73;100.00;101064.28;5254517;27;1316;-68
2024/04/17 03:41:02;;;;;;;;;;;;;;;9.74;100.00;101061.41;5265180;27;1253;-68
2024/04/17 03:43:27;;;;;;;;;;;;;;;9.73;100.00;101061.63;5272850;27;1124;-67
2024/04/17 03:45:53;;;;;;;;;;;;;;;9.72;100.00;101062.63;5280839;27;1378;-67
2024/04/17 03:48:18;;;;;;;;;;;;;;;9.69;100.00;101061.19;5293934;27;1837;-67
2024/04/17 03:50:43;;;;;;;;;;;;;;;9.72;100.00;101070.69;5266694;27;1339;-67
2024/04/17 03:53:09;;;;;;;;;;;;;;;9.76;100.00;101072.72;5270855;27;1215;-68
2024/04/17 03:55:35;;;;;;;;;;;;;;;9.73;100.00;101061.63;5248186;27;1468;-68
2024/04/17 03:58:00;;;;;;;;;;;;;;;9.72;100.00;101065.31;5241437;27;1241;-68
2024/04/17 04:00:25;;;;;;;;;;;;;;;9.72;100.00;101068.00;5285277;26;2045;-68
2024/04/17 04:02:51;;;;;;;;;;;;;;;9.69;100.00;101077.25;5270578;27;2082;-68
2024/04/17 04:05:16;;;;;;;;;;;;;;;9.68;100.00;101071.09;5262039;27;1303;-67
2024/04/17 04:07:42;;;;;;;;;;;;;;;9.68;100.00;101078.31;5247278;27;1854;-68
2024/04/17 04:10:07;;;;;;;;;;;;;;;9.69;100.00;101074.56;5263344;27;1299;-68
2024/04/17 04:12:32;;;;;;;;;;;;;;;9.74;100.00;101076.63;5226304;27;1244;-67
2024/04/17 04:14:57;;;;;;;;;;;;;;;9.71;100.00;101077.03;5251028;27;1174;-67
2024/04/17 04:17:23;;;;;;;;;;;;;;;9.72;100.00;101076.03;5252479;27;1206;-67
2024/04/17 04:19:48;;;;;;;;;;;;;;;9.70;100.00;101086.13;5232851;27;1280;-67
2024/04/17 04:22:13;;;;;;;;;;;;;;;9.71;100.00;101085.94;5273204;26;1261;-67
2024/04/17 04:24:40;;;;;;;;;;;;;;;9.70;100.00;101084.28;5255067;27;1307;-67
2024/04/17 04:27:05;;;;;;;;;;;;;;;9.70;100.00;101086.13;5249419;27;1874;-67
2024/04/17 04:29:30;;;;;;;;;;;;;;;9.68;100.00;101081.78;5255309;27;1464;-67
2024/04/17 04:31:56;;;;;;;;;;;;;;;9.69;100.00;101082.63;5268621;27;1365;-67
2024/04/17 04:34:21;;;;;;;;;;;;;;;9.69;100.00;101079.94;5266051;27;1541;-67
2024/04/17 04:36:46;;;;;;;;;;;;;;;9.75;100.00;101078.28;5256936;27;1391;-67
2024/04/17 04:39:11;;;;;;;;;;;;;;;9.73;100.00;101075.00;5225306;27;1575;-67
2024/04/17 04:41:37;;;;;;;;;;;;;;;9.71;100.00;101082.41;5247910;27;1463;-67
2024/04/17 04:44:02;;;;;;;;;;;;;;;9.74;100.00;101082.00;5288280;26;1611;-67
2024/04/17 04:46:27;;;;;;;;;;;;;;;9.72;100.00;101074.16;5244212;27;1470;-67
2024/04/17 04:48:52;;;;;;;;;;;;;;;9.75;100.00;101073.75;5229844;27;1873;-67
2024/04/17 04:51:18;;;;;;;;;;;;;;;9.71;100.00;101080.56;5273911;27;1371;-66
2024/04/17 04:53:43;;;;;;;;;;;;;;;9.74;100.00;101077.47;5268203;27;1601;-67
2024/04/17 04:56:08;;;;;;;;;;;;;;;9.74;100.00;101085.50;5258550;27;1739;-66
2024/04/17 04:58:34;;;;;;;;;;;;;;;9.72;100.00;101082.19;5266059;27;1443;-67
2024/04/17 05:00:59;;;;;;;;;;;;;;;9.71;100.00;101080.56;5261813;27;1414;-67
2024/04/17 05:03:24;;;;;;;;;;;;;;;9.72;100.00;101084.06;5254114;27;1526;-67
2024/04/17 05:05:50;;;;;;;;;;;;;;;9.70;100.00;101086.13;5271186;27;1725;-67
2024/04/17 05:08:15;;;;;;;;;;;;;;;9.73;100.00;101083.03;5261754;27;1826;-67
2024/04/17 05:10:40;;;;;;;;;;;;;;;9.68;100.00;101086.34;5265815;27;1450;-67
2024/04/17 05:13:05;;;;;;;;;;;;;;;9.70;100.00;101083.47;5268632;27;1598;-67
2024/04/17 05:15:31;;;;;;;;;;;;;;;9.72;100.00;101084.88;5270372;27;1557;-67
2024/04/17 05:17:56;;;;;;;;;;;;;;;9.73;100.00;101086.53;5264070;27;1441;-66
2024/04/17 05:20:21;;;;;;;;;;;;;;;9.75;100.00;101091.69;5284938;26;1440;-66
2024/04/17 05:22:47;;;;;;;;;;;;;;;9.74;100.00;101088.19;5272419;27;1554;-66
2024/04/17 05:25:12;;;;;;;;;;;;;;;9.69;100.00;101085.28;5266384;27;1466;-66
2024/04/17 05:27:37;;;;;;;;;;;;;;;9.69;100.00;101079.94;5281184;26;1837;-66
2024/04/17 05:30:04;;;;;;;;;;;;;;;9.73;100.00;101085.72;5266171;27;1455;-66
2024/04/17 05:32:29;;;;;;;;;;;;;;;9.68;100.00;101079.13;5262558;27;1554;-66
2024/04/17 05:34:54;;;;;;;;;;;;;;;9.68;100.00;101086.34;5261000;27;1462;-66
2024/04/17 05:37:19;;;;;;;;;;;;;;;9.66;100.00;101083.88;5266586;27;1384;-66
2024/04/17 05:39:45;;;;;;;;;;;;;;;9.68;100.00;101079.13;5280833;27;1553;-66
2024/04/17 05:42:10;;;;;;;;;;;;;;;9.71;100.00;101082.41;5261437;27;1456;-66
2024/04/17 05:44:36;;;;;;;;;;;;;;;9.70;100.00;101080.78;5275207;27;1295;-66
2024/04/17 05:47:01;;;;;;;;;;;;;;;9.72;100.00;101076.84;5274626;27;1830;-66
2024/04/17 05:49:27;;;;;;;;;;;;;;;9.74;100.00;101092.72;5292424;27;1470;-66
2024/04/17 05:51:52;;;;;;;;;;;;;;;9.75;100.00;101087.16;5271391;27;1248;-66
2024/04/17 05:54:17;;;;;;;;;;;;;;;9.73;100.00;101085.72;5260311;27;1471;-66
2024/04/17 05:56:43;;;;;;;;;;;;;;;9.73;100.00;101085.72;5224044;27;1235;-66
2024/04/17 05:59:08;;;;;;;;;;;;;;;9.74;100.00;101082.00;5264386;27;1579;-66
2024/04/17 06:01:33;;;;;;;;;;;;;;;9.76;100.00;101091.47;5263698;27;1249;-66
2024/04/17 06:04:01;;;;;;;;;;;;;;;9.80;100.00;101091.91;5260467;27;1276;-65
2024/04/17 06:06:26;;;;;;;;;;;;;;;9.79;100.00;101088.38;5248488;27;1375;-65
2024/04/17 06:08:51;;;;;;;;;;;;;;;9.79;100.00;101084.91;5264280;27;1831;-65
2024/04/17 06:11:17;;;;;;;;;;;;;;;9.84;100.00;101093.13;5253010;27;1455;-65
2024/04/17 06:13:42;;;;;;;;;;;;;;;9.93;100.00;101097.28;5259901;27;1490;-65
2024/04/17 06:16:07;;;;;;;;;;;;;;;9.95;100.00;101094.38;5255358;27;1418;-65
2024/04/17 06:18:33;;;;;;;;;;;;;;;9.93;100.00;101093.75;5262030;27;1512;-66
2024/04/17 06:20:58;;;;;;;;;;;;;;;9.95;100.00;101089.84;5258294;27;1513;-66
2024/04/17 06:23:23;;;;;;;;;;;;;;;9.94;100.00;101101.59;5254715;27;1475;-66
2024/04/17 06:25:49;;;;;;;;;;;;;;;10.01;100.00;101093.56;5232318;27;1405;-66
2024/04/17 06:28:14;;;;;;;;;;;;;;;9.98;100.00;101097.47;5258698;27;1837;-66
2024/04/17 06:30:40;;;;;;;;;;;;;;;10.03;100.00;101099.53;5263780;27;1455;-66
2024/04/17 06:33:05;;;;;;;;;;;;;;;10.09;100.00;101092.50;5264091;27;1479;-65
2024/04/17 06:35:30;;;;;;;;;;;;;;;10.03;100.00;101102.19;5258208;27;1550;-66
2024/04/17 06:37:55;;;;;;;;;;;;;;;10.08;100.00;101096.22;5280114;27;1285;-66
2024/04/17 06:40:21;;;;;;;;;;;;;;;10.13;100.00;101088.41;5280387;26;1297;-66
2024/04/17 06:42:46;;;;;;;;;;;;;;;10.10;100.00;101096.84;5254002;27;1479;-66
2024/04/17 06:45:12;;;;;;;;;;;;;;;10.09;100.00;101092.50;5241896;27;1467;-66
2024/04/17 06:47:37;;;;;;;;;;;;;;;10.08;100.00;101098.91;5280822;27;1868;-66
2024/04/17 06:50:02;;;;;;;;;;;;;;;10.09;100.00;101103.25;5238998;27;1515;-66
2024/04/17 06:52:28;;;;;;;;;;;;;;;10.10;100.00;101103.03;5262470;27;1511;-66
2024/04/17 06:54:53;;;;;;;;;;;;;;;10.09;100.00;101101.38;5249508;27;1398;-66
2024/04/17 06:57:18;;;;;;;;;;;;;;;10.12;100.00;101110.84;5258515;27;1248;-66
2024/04/17 06:59:43;;;;;;;;;;;;;;;10.17;100.00;101105.72;5280435;27;1756;-67
2024/04/17 07:02:10;;;;;;;;;;;;;;;10.17;100.00;101103.03;5269012;27;1594;-66
2024/04/17 07:04:35;;;;;;;;;;;;;;;10.24;100.00;101103.84;5259400;27;1320;-66
2024/04/17 07:07:01;;;;;;;;;;;;;;;10.28;100.00;101099.72;5261756;27;1837;-66
2024/04/17 07:09:26;;;;;;;;;;;;;;;10.30;100.00;101094.97;5272853;27;1500;-66
2024/04/17 07:11:51;;;;;;;;;;;;;;;10.35;100.00;101105.13;5261741;27;1364;-66
2024/04/17 07:14:17;;;;;;;;;;;;;;;10.38;100.00;101104.69;5245340;27;1479;-66
2024/04/17 07:16:42;;;;;;;;;;;;;;;10.43;100.00;101101.38;5261335;27;1436;-66
2024/04/17 07:19:07;;;;;;;;;;;;;;;10.48;100.00;101099.72;5264147;27;1311;-66
2024/04/17 07:21:33;;;;;;;;;;;;;;;10.56;100.00;101102.16;5242202;27;1280;-66
2024/04/17 07:23:58;;;;;;;;;;;;;;;10.61;100.00;101098.03;5257971;27;1444;-66
2024/04/17 07:26:23;;;;;;;;;;;;;;;10.65;100.00;101100.09;5259981;27;1352;-66
2024/04/17 07:28:48;;;;;;;;;;;;;;;10.76;100.00;101098.59;5251519;27;1861;-66
2024/04/17 07:31:14;;;;;;;;;;;;;;;10.81;100.00;101098.00;5251790;27;1242;-66
2024/04/17 07:33:40;;;;;;;;;;;;;;;10.84;100.00;101095.69;5252099;27;1291;-67
2024/04/17 07:36:05;;;;;;;;;;;;;;;10.88;100.00;101094.25;5260815;27;1305;-66
2024/04/17 07:38:30;;;;;;;;;;;;;;;10.92;100.00;101089.25;5249807;27;1365;-66
2024/04/17 07:41:02;;;;;;;;;;;;;;;10.98;100.00;101093.78;5249686;27;1372;-66
2024/04/17 07:43:30;;;;;;;;;;;;;;;11.03;100.00;101088.59;5278512;27;1354;-66
2024/04/17 07:45:56;;;;;;;;;;;;;;;11.07;100.00;101084.47;5266189;26;1390;-66
2024/04/17 07:48:21;;;;;;;;;;;;;;;10.98;100.00;101087.59;5267146;27;1912;-66
2024/04/17 07:50:47;;;;;;;;;;;;;;;11.11;100.00;101084.84;5245647;27;1504;-66
2024/04/17 07:53:12;;;;;;;;;;;;;;;11.18;100.00;101090.16;5276426;26;1321;-66
2024/04/17 07:55:38;;;;;;;;;;;;;;;11.19;100.00;101081.94;5254681;27;1488;-66
2024/04/17 07:58:03;;;;;;;;;;;;;;;11.34;100.00;101076.25;5247451;27;1322;-66
2024/04/17 08:00:29;;;;;;;;;;;;;;;11.37;100.00;101075.84;5265710;27;1478;-66
2024/04/17 08:02:54;;;;;;;;;;;;;;;11.34;100.00;101089.69;5250934;27;1490;-67
2024/04/17 08:05:19;;;;;;;;;;;;;;;11.23;100.00;101083.13;5253618;27;1559;-66
2024/04/17 08:07:44;;;;;;;;;;;;;;;11.26;100.00;101088.06;5262796;27;1822;-66
2024/04/17 08:10:10;;;;;;;;;;;;;;;11.25;100.00;101083.75;5262068;27;1543;-66
2024/04/17 08:12:36;;;;;;;;;;;;;;;11.22;100.00;101084.19;5283205;26;1490;-66
2024/04/17 08:15:02;;;;;;;;;;;;;;;11.10;100.00;101085.88;5245003;27;1493;-66
2024/04/17 08:17:27;;;;;;;;;;;;;;;11.08;100.00;101079.91;5242320;27;1355;-66
2024/04/17 08:19:52;;;;;;;;;;;;;;;11.12;100.00;101081.13;5251897;27;1443;-66
2024/04/17 08:22:17;;;;;;;;;;;;;;;11.20;100.00;101083.56;5264238;27;1524;-66
2024/04/17 08:24:43;;;;;;;;;;;;;;;11.27;100.00;101080.84;5261937;27;1429;-66
2024/04/17 08:27:08;;;;;;;;;;;;;;;11.31;100.00;101084.75;5249748;27;1823;-66
2024/04/17 08:29:33;;;;;;;;;;;;;;;11.28;100.00;101082.47;5255988;27;1329;-66
2024/04/17 08:31:58;;;;;;;;;;;;;;;11.29;100.00;101083.31;5244334;27;1396;-66
2024/04/17 08:34:24;;;;;;;;;;;;;;;11.32;100.00;101082.88;5245673;27;1560;-66
2024/04/17 08:36:51;;;;;;;;;;;;;;;11.37;100.00;101083.03;5225888;27;1339;-67
2024/04/17 08:39:17;;;;;;;;;;;;;;;11.39;100.00;101084.47;5259281;27;1377;-66
2024/04/17 08:41:48;;;;;;;;;;;;;;;11.45;100.00;101088.16;5254885;27;1556;-66
2024/04/17 08:44:15;;;;;;;;;;;;;;;11.47;100.00;101093.31;5245690;27;1382;-66
2024/04/17 08:46:40;;;;;;;;;;;;;;;11.48;100.00;101094.97;5217812;27;1529;-67
2024/04/17 08:49:05;;;;;;;;;;;;;;;11.41;100.00;101087.75;5246721;27;1863;-67
2024/04/17 08:51:30;;;;;;;;;;;;;;;11.36;100.00;101094.84;5268490;26;1454;-67
2024/04/17 08:53:57;;;;;;;;;;;;;;;11.38;100.00;101084.69;5251995;27;1477;-67
2024/04/17 08:56:23;;;;;;;;;;;;;;;11.46;100.00;101078.25;5222142;27;1552;-66
2024/04/17 08:58:49;;;;;;;;;;;;;;;11.47;100.00;101087.94;5246324;27;1311;-67
2024/04/17 09:01:14;;;;;;;;;;;;;;;11.63;100.00;101079.38;5251925;27;1532;-66
2024/04/17 09:03:40;;;;;;;;;;;;;;;11.73;100.00;101089.66;5267327;26;1496;-66
2024/04/17 09:06:06;;;;;;;;;;;;;;;11.79;100.00;101094.13;5251721;27;1406;-66
2024/04/17 09:08:31;;;;;;;;;;;;;;;11.65;100.00;101092.59;5274694;26;1843;-67
2024/04/17 09:10:57;;;;;;;;;;;;;;;11.67;100.00;101088.66;5268908;27;1333;-67
2024/04/17 09:13:22;;;;;;;;;;;;;;;11.63;100.00;101092.00;5255805;27;1237;-67
2024/04/17 09:15:47;;;;;;;;;;;;;;;11.61;100.00;101081.47;5261729;27;1386;-67
2024/04/17 09:18:13;;;;;;;;;;;;;;;11.70;100.00;101090.09;5263855;27;1246;-67
2024/04/17 09:20:38;;;;;;;;;;;;;;;11.75;100.00;101077.63;5264890;27;1446;-67
2024/04/17 09:23:10;;;;;;;;;;;;;;;11.76;100.00;101079.28;5268090;27;1274;-67
2024/04/17 09:25:38;;;;;;;;;;;;;;;11.84;100.00;101080.03;5252143;27;1227;-67
2024/04/17 09:28:04;;;;;;;;;;;;;;;11.91;100.00;101073.56;5245184;27;1839;-67
2024/04/17 09:30:29;;;;;;;;;;;;;;;11.96;100.00;101084.53;5248523;27;1192;-68
2024/04/17 09:32:54;;;;;;;;;;;;;;;11.91;100.00;101076.25;5257092;27;1190;-68
2024/04/17 09:35:20;;;;;;;;;;;;;;;11.90;100.00;101071.09;5266257;27;1174;-68
2024/04/17 09:37:45;;;;;;;;;;;;;;;11.94;100.00;101070.47;5233286;27;1244;-70
2024/04/17 09:40:10;;;;;;;;;;;;;;;11.90;100.00;101073.78;5293576;27;1216;-68
2024/04/17 09:42:37;;;;;;;;;;;;;;;11.90;100.00;101068.41;5234110;27;1319;-68
2024/04/17 09:45:03;;;;;;;;;;;;;;;11.85;100.00;101068.25;5242340;27;1427;-68
2024/04/17 09:47:28;;;;;;;;;;;;;;;11.85;100.00;101071.75;5256272;27;1837;-68
2024/04/17 09:49:54;;;;;;;;;;;;;;;11.87;100.00;101072.34;5262754;27;1317;-69
2024/04/17 09:52:19;;;;;;;;;;;;;;;11.81;100.00;101065.19;5243046;27;1401;-69
2024/04/17 09:54:44;;;;;;;;;;;;;;;11.74;100.00;101061.72;5247587;27;1303;-68
2024/04/17 09:57:10;;;;;;;;;;;;;;;11.65;100.00;101076.47;5240214;27;1341;-68
2024/04/17 09:59:35;;;;;;;;;;;;;;;11.54;100.00;101088.75;5271203;27;1473;-68
2024/04/17 10:02:00;;;;;;;;;;;;;;;11.54;100.00;101088.75;5238372;27;1395;-68
2024/04/17 10:04:26;;;;;;;;;;;;;;;11.59;100.00;101089.75;5250094;27;1547;-68
2024/04/17 10:06:52;;;;;;;;;;;;;;;11.62;100.00;101088.47;5260045;27;1310;-68
2024/04/17 10:09:17;;;;;;;;;;;;;;;11.64;100.00;101098.97;5267399;27;1830;-68
2024/04/17 10:11:42;;;;;;;;;;;;;;;11.60;100.00;101107.47;5234095;27;1426;-68
2024/04/17 10:14:11;;;;;;;;;;;;;;;11.61;100.00;101103.75;5264535;27;1373;-68
2024/04/17 10:16:37;;;;;;;;;;;;;;;11.63;100.00;101105.41;5243711;27;1309;-68
2024/04/17 10:19:02;;;;;;;;;;;;;;;11.62;100.00;101096.50;5237606;27;1373;-68
2024/04/17 10:21:28;;;;;;;;;;;;;;;11.61;100.00;101102.94;5267381;26;1362;-68
2024/04/17 10:24:00;;;;;;;;;;;;;;;11.55;100.00;101093.88;5274037;26;1417;-68
2024/04/17 10:26:34;;;;;;;;;;;;;;;11.64;100.00;101099.81;5220166;27;1442;-68
2024/04/17 10:29:00;;;;;;;;;;;;;;;11.62;100.00;101099.19;5261185;26;1865;-68
2024/04/17 10:31:32;;;;;;;;;;;;;;;11.62;100.00;101088.47;5268635;27;1474;-68
2024/04/17 10:33:57;;;;;;;;;;;;;;;11.65;100.00;101090.72;5240791;27;1562;-68
2024/04/17 10:36:22;;;;;;;;;;;;;;;11.63;100.00;101089.31;5257466;27;1574;-68
2024/04/17 10:38:48;;;;;;;;;;;;;;;11.58;100.00;101093.47;5282160;26;1475;-68
2024/04/17 10:41:13;;;;;;;;;;;;;;;11.59;100.00;101092.44;5225451;27;1598;-68
2024/04/17 10:43:38;;;;;;;;;;;;;;;11.59;100.00;101092.44;5259501;27;1459;-68
2024/04/17 10:46:04;;;;;;;;;;;;;;;11.65;100.00;101084.53;5197946;27;1586;-68
2024/04/17 10:48:29;;;;;;;;;;;;;;;11.65;100.00;101088.03;5252031;27;1834;-68
2024/04/17 10:50:55;;;;;;;;;;;;;;;11.63;100.00;101086.63;5264874;27;1576;-69
2024/04/17 10:53:20;;;;;;;;;;;;;;;11.74;100.00;101086.72;5259537;27;1617;-69
2024/04/17 10:55:45;;;;;;;;;;;;;;;11.77;100.00;101094.34;5245580;27;1511;-68
2024/04/17 10:58:12;;;;;;;;;;;;;;;11.79;100.00;101083.38;5245751;27;1521;-68
2024/04/17 11:00:37;;;;;;;;;;;;;;;11.76;100.00;101090.03;5239153;27;1420;-68
2024/04/17 11:03:03;;;;;;;;;;;;;;;11.81;100.00;101080.47;5239563;27;1406;-68
2024/04/17 11:05:30;;;;;;;;;;;;;;;11.79;100.00;101080.69;5274733;27;1328;-69
2024/04/17 11:07:55;;;;;;;;;;;;;;;11.82;100.00;101084.78;5247224;27;1965;-69
2024/04/17 11:10:20;;;;;;;;;;;;;;;11.83;100.00;101087.28;5268969;27;2146;-68
2024/04/17 11:12:46;;;;;;;;;;;;;;;11.79;100.00;101088.75;5246230;27;1436;-68
2024/04/17 11:15:11;;;;;;;;;;;;;;;11.82;100.00;101082.94;5277831;27;1541;-68
2024/04/17 11:17:36;;;;;;;;;;;;;;;11.86;100.00;101088.69;5212130;27;1410;-68
2024/04/17 11:20:02;;;;;;;;;;;;;;;11.86;100.00;101086.00;5248822;27;1322;-68
2024/04/17 11:22:28;;;;;;;;;;;;;;;11.89;100.00;101089.09;5226988;27;1246;-69
2024/04/17 11:24:57;;;;;;;;;;;;;;;11.88;100.00;101081.25;5260060;27;1187;-68
2024/04/17 11:27:22;;;;;;;;;;;;;;;11.85;100.00;101076.31;5274650;27;1833;-69
2024/04/17 11:29:48;;;;;;;;;;;;;;;11.91;100.00;101078.13;5267824;27;1374;-68
2024/04/17 11:32:13;;;;;;;;;;;;;;;11.91;100.00;101078.13;5261192;27;1280;-70
2024/04/17 11:34:38;;;;;;;;;;;;;;;11.95;100.00;101074.81;5220587;27;1292;-69
2024/04/17 11:37:04;;;;;;;;;;;;;;;11.99;100.00;101077.06;5246187;27;1197;-69
2024/04/17 11:39:30;;;;;;;;;;;;;;;11.99;100.00;101075.19;5264246;27;1391;-69
2024/04/17 11:41:55;;;;;;;;;;;;;;;12.04;100.00;101069.97;5250896;27;1340;-69
2024/04/17 11:44:20;;;;;;;;;;;;;;;12.04;100.00;101075.34;5264638;27;1452;-69
2024/04/17 11:46:46;;;;;;;;;;;;;;;12.10;100.00;101079.84;5252721;27;1379;-69
2024/04/17 11:49:11;;;;;;;;;;;;;;;12.07;100.00;101074.06;5278890;27;1830;-69
2024/04/17 11:51:36;;;;;;;;;;;;;;;12.17;100.00;101073.59;5268602;27;1442;-69
2024/04/17 11:54:03;;;;;;;;;;;;;;;12.26;100.00;101073.09;5259389;27;1204;-68
2024/04/17 11:56:28;;;;;;;;;;;;;;;12.24;100.00;101069.78;5238003;27;1269;-68
2024/04/17 11:58:54;;;;;;;;;;;;;;;12.25;100.00;101076.00;5274738;27;1394;-69
2024/04/17 12:01:19;;;;;;;;;;;;;;;12.28;100.00;101056.72;5227103;27;1276;-69
2024/04/17 12:03:44;;;;;;;;;;;;;;;12.29;100.00;101055.66;5254493;27;1358;-69
2024/04/17 12:06:09;;;;;;;;;;;;;;;12.37;100.00;101058.06;5261594;27;1282;-69
2024/04/17 12:08:35;;;;;;;;;;;;;;;12.34;100.00;101057.69;5268317;27;1826;-70
2024/04/17 12:11:00;;;;;;;;;;;;;;;12.35;100.00;101052.09;5238393;27;1445;-69
2024/04/17 12:13:25;;;;;;;;;;;;;;;12.39;100.00;101042.53;5257521;27;1315;-69
2024/04/17 12:15:51;;;;;;;;;;;;;;;12.43;100.00;101048.28;5275351;27;1321;-69
2024/04/17 12:18:22;;;;;;;;;;;;;;;12.41;100.00;101043.16;5250504;27;1271;-69
2024/04/17 12:20:48;;;;;;;;;;;;;;;12.42;100.00;101038.56;5272195;26;1276;-70
2024/04/17 12:23:19;;;;;;;;;;;;;;;12.44;100.00;101026.56;5288302;26;1282;-69
2024/04/17 12:28:31;;;;;;;;;;;;;;;12.51;100.00;101036.41;5256042;27;1827;-69
2024/04/17 12:30:56;;;;;;;;;;;;;;;12.51;100.00;101033.72;5263285;27;1261;-70
2024/04/17 12:33:22;;;;;;;;;;;;;;;12.50;100.00;101038.28;5248681;27;1275;-69